Time;durP1;ratioP1;P1;durP2;ratioP2;P2;SDS_P1;SDS_P2;PMS_P1;PMS_P2;Temp;Humidity;BMP_temperature;BMP_pressure;BME280_temperature;BME280_humidity;BME280_pressure;Samples;Min_cycle;Max_cycle;Signal;HPM_P1;HPM_P2
2022/04/02 00:00:44;;;;;;;16.00;9.98;;;;;;;0.35;100.00;97616.41;4987229;28;20038;-69
2022/04/02 00:03:09;;;;;;;15.32;9.25;;;;;;;0.38;100.00;97615.25;4990686;28;20026;-69
2022/04/02 00:05:34;;;;;;;19.80;10.68;;;;;;;0.41;100.00;97620.22;4989829;28;20022;-70
2022/04/02 00:08:00;;;;;;;13.95;9.70;;;;;;;0.40;100.00;97613.25;4979816;28;20488;-69
2022/04/02 00:10:25;;;;;;;14.75;10.23;;;;;;;0.40;100.00;97619.41;4992730;28;20022;-69
2022/04/02 00:12:53;;;;;;;14.48;9.20;;;;;;;0.37;100.00;97613.59;4988519;28;20341;-69
2022/04/02 00:15:18;;;;;;;18.35;8.75;;;;;;;0.39;100.00;97617.75;4981780;28;20046;-69
2022/04/02 00:17:44;;;;;;;15.07;9.43;;;;;;;0.32;100.00;97622.06;4993555;28;20067;-69
2022/04/02 00:20:10;;;;;;;16.55;9.63;;;;;;;0.42;100.00;97613.91;4989095;28;20049;-69
2022/04/02 00:22:35;;;;;;;16.42;9.70;;;;;;;0.35;100.00;97603.09;4983832;28;20023;-69
2022/04/02 00:25:00;;;;;;;14.30;8.68;;;;;;;0.38;100.00;97617.91;4980237;28;20026;-69
2022/04/02 00:27:26;;;;;;;17.67;10.07;;;;;;;0.33;100.00;97613.06;4988424;28;20022;-69
2022/04/02 00:29:52;;;;;;;15.32;10.20;;;;;;;0.21;100.00;97593.16;4976114;28;20069;-68
2022/04/02 00:32:17;;;;;;;18.02;9.93;;;;;;;0.34;100.00;97613.91;4984637;28;20062;-69
2022/04/02 00:34:42;;;;;;;17.05;9.90;;;;;;;0.36;100.00;97607.41;4984423;28;20060;-69
2022/04/02 00:37:08;;;;;;;15.23;9.57;;;;;;;0.31;100.00;97615.06;4995143;28;20038;-69
2022/04/02 00:39:33;;;;;;;15.27;9.02;;;;;;;0.38;100.00;97609.91;4995440;28;20041;-68
2022/04/02 00:41:58;;;;;;;17.08;9.52;;;;;;;0.33;100.00;97615.72;4991549;28;20056;-69
2022/04/02 00:44:27;;;;;;;14.85;9.30;;;;;;;0.34;100.00;97609.44;4982353;28;20430;-69
2022/04/02 00:46:53;;;;;;;17.45;8.48;;;;;;;0.26;100.00;97619.22;4992278;28;20038;-69
2022/04/02 00:49:20;;;;;;;18.50;9.57;;;;;;;0.31;100.00;97600.94;4985679;28;20034;-69
2022/04/02 00:51:46;;;;;;;14.05;9.30;;;;;;;0.29;100.00;97610.91;4978011;28;20026;-69
2022/04/02 00:54:16;;;;;;;19.02;9.63;;;;;;;0.25;100.00;97613.09;4986141;28;20026;-69
2022/04/02 00:56:43;;;;;;;18.85;9.20;;;;;;;0.29;100.00;97617.09;4987118;28;20120;-69
2022/04/02 00:59:09;;;;;;;14.18;8.98;;;;;;;0.28;100.00;97617.25;4985541;28;20393;-69
2022/04/02 01:01:35;;;;;;;11.98;7.65;;;;;;;0.29;100.00;97621.56;4989434;28;20038;-69
2022/04/02 01:04:02;;;;;;;13.93;8.70;;;;;;;0.16;100.00;97606.13;4986478;28;20030;-68
2022/04/02 01:06:29;;;;;;;15.95;8.65;;;;;;;0.25;100.00;97614.91;4983091;28;20105;-69
2022/04/02 01:08:54;;;;;;;14.57;7.95;;;;;;;0.08;100.00;97591.00;4989654;28;20476;-69
2022/04/02 01:11:20;;;;;;;13.70;8.15;;;;;;;0.18;100.00;97614.75;5004245;28;20082;-69
2022/04/02 01:13:45;;;;;;;15.07;8.98;;;;;;;0.29;100.00;97611.75;4999110;28;20037;-69
2022/04/02 01:16:11;;;;;;;12.98;7.53;;;;;;;0.35;100.00;97635.03;5007999;28;20022;-68
2022/04/02 01:18:36;;;;;;;12.52;8.77;;;;;;;0.32;100.00;97627.38;5011307;28;20022;-70
2022/04/02 01:21:02;;;;;;;12.70;8.63;;;;;;;0.33;100.00;97625.56;5011558;28;20034;-69
2022/04/02 01:23:29;;;;;;;13.20;7.57;;;;;;;0.27;100.00;97632.38;5000274;28;20046;-70
2022/04/02 01:26:04;;;;;;;13.38;7.88;;;;;;;0.19;100.00;97627.06;5004499;28;20037;-69
2022/04/02 01:28:33;;;;;;;13.45;7.45;;;;;;;0.20;100.00;97634.03;5007498;28;20041;-68
2022/04/02 01:31:01;;;;;;;15.10;8.00;;;;;;;0.24;100.00;97643.34;5001130;28;20023;-69
2022/04/02 01:33:26;;;;;;;18.70;8.75;;;;;;;0.17;100.00;97643.19;5011854;28;20093;-69
2022/04/02 01:35:59;;;;;;;14.60;7.97;;;;;;;0.11;100.00;97627.88;4979104;28;20054;-69
2022/04/02 01:38:25;;;;;;;11.95;7.25;;;;;;;0.22;100.00;97637.38;4977278;28;20039;-68
2022/04/02 01:40:51;;;;;;;11.38;7.15;;;;;;;0.17;100.00;97642.34;4985946;28;20484;-69
2022/04/02 01:43:16;;;;;;;10.48;7.32;;;;;;;0.13;100.00;97638.34;4980335;28;20084;-69
2022/04/02 01:45:41;;;;;;;11.18;8.05;;;;;;;0.13;100.00;97639.19;4991453;28;20045;-69
2022/04/02 01:48:07;;;;;;;12.68;7.90;;;;;;;0.08;100.00;97646.00;4991828;28;20055;-68
2022/04/02 01:50:32;;;;;;;14.02;7.38;;;;;;;0.10;100.00;97646.66;4989633;28;20061;-69
2022/04/02 01:52:57;;;;;;;14.45;7.57;;;;;;;0.08;100.00;97649.50;4979128;28;20120;-68
2022/04/02 01:55:23;;;;;;;13.57;7.53;;;;;;;0.14;100.00;97642.69;4980853;28;20049;-69
2022/04/02 01:57:48;;;;;;;11.80;7.00;;;;;;;0.12;100.00;97644.69;4978349;28;20041;-69
2022/04/02 02:00:14;;;;;;;12.93;7.88;;;;;;;0.15;100.00;97641.69;4981277;28;20014;-69
2022/04/02 02:02:40;;;;;;;14.07;7.13;;;;;;;0.10;100.00;97644.00;4991182;28;20045;-69
2022/04/02 02:05:06;;;;;;;16.80;7.03;;;;;;;0.05;100.00;97647.16;4992063;28;20026;-69
2022/04/02 02:07:31;;;;;;;11.07;7.38;;;;;;;-0.09;100.00;97627.38;4989243;28;20041;-69
2022/04/02 02:09:57;;;;;;;10.00;6.57;;;;;;;-0.14;100.00;97629.69;4989187;28;20030;-69
2022/04/02 02:12:23;;;;;;;19.20;7.15;;;;;;;-0.01;100.00;97659.28;4990196;28;20077;-69
2022/04/02 02:14:48;;;;;;;13.88;6.95;;;;;;;-0.14;100.00;97626.22;4992109;28;20030;-69
2022/04/02 02:17:15;;;;;;;9.15;5.90;;;;;;;0.07;100.00;97661.13;4984865;28;20041;-69
2022/04/02 02:19:40;;;;;;;10.15;6.40;;;;;;;-0.03;100.00;97655.13;4988462;28;20038;-69
2022/04/02 02:22:06;;;;;;;12.38;6.85;;;;;;;0.02;100.00;97662.63;4990320;28;20109;-69
2022/04/02 02:24:32;;;;;;;8.77;5.95;;;;;;;0.01;100.00;97672.44;4983977;28;20030;-69
2022/04/02 02:26:57;;;;;;;11.65;6.65;;;;;;;-0.01;100.00;97674.41;4983064;28;20960;-69
2022/04/02 02:29:23;;;;;;;13.32;6.68;;;;;;;-0.12;100.00;97656.13;4985199;28;20110;-69
2022/04/02 02:31:48;;;;;;;10.65;6.00;;;;;;;-0.02;100.00;97678.06;4980637;28;20033;-69
2022/04/02 02:36:57;;;;;;;10.88;6.55;;;;;;;-0.13;100.00;97660.63;4982006;28;20042;-68
2022/04/02 02:39:23;;;;;;;9.48;5.78;;;;;;;0.02;100.00;97678.56;4978503;28;20492;-66
2022/04/02 02:41:48;;;;;;;10.95;6.18;;;;;;;-0.22;100.00;97648.28;4986144;28;20044;-69
2022/04/02 02:44:13;;;;;;;11.45;6.60;;;;;;;-0.09;100.00;97679.72;4977917;28;20034;-67
2022/04/02 02:46:39;;;;;;;14.90;6.13;;;;;;;-0.11;100.00;97687.03;4984993;28;20027;-69
2022/04/02 02:49:04;;;;;;;10.98;6.35;;;;;;;-0.06;100.00;97677.56;4990648;28;20037;-69
2022/04/02 02:51:30;;;;;;;16.20;5.93;;;;;;;-0.09;100.00;97672.56;4989741;28;20026;-68
2022/04/02 02:53:55;;;;;;;10.10;5.97;;;;;;;-0.05;100.00;97689.03;4991418;28;20030;-69
2022/04/02 02:56:20;;;;;;;13.07;6.47;;;;;;;-0.04;100.00;97685.38;4981392;28;20034;-69
2022/04/02 02:58:46;;;;;;;11.85;5.93;;;;;;;-0.13;100.00;97679.22;4984095;28;20596;-69
2022/04/02 03:01:11;;;;;;;9.88;5.60;;;;;;;-0.18;100.00;97672.72;4990247;28;20058;-69
2022/04/02 03:03:38;;;;;;;12.32;7.00;;;;;;;-0.11;100.00;97695.00;4985400;28;20026;-69
2022/04/02 03:06:03;;;;;;;13.77;6.03;;;;;;;-0.14;100.00;97698.81;4988514;28;20117;-68
2022/04/02 03:08:28;;;;;;;11.70;6.50;;;;;;;-0.09;100.00;97693.84;4985314;28;20066;-69
2022/04/02 03:10:54;;;;;;;12.75;6.47;;;;;;;-0.07;100.00;97693.69;4989722;28;20066;-69
2022/04/02 03:13:20;;;;;;;9.30;5.95;;;;;;;-0.11;100.00;97684.34;4986772;28;20113;-69
2022/04/02 03:15:46;;;;;;;9.63;6.70;;;;;;;-0.12;100.00;97688.03;4994478;28;20037;-68
2022/04/02 03:18:11;;;;;;;14.20;7.03;;;;;;;-0.06;100.00;97682.88;4999673;28;20084;-69
2022/04/02 03:20:37;;;;;;;10.35;6.20;;;;;;;-0.04;100.00;97696.00;4989880;28;20126;-69
2022/04/02 03:23:04;;;;;;;13.68;6.70;;;;;;;0.00;100.00;97708.00;4977947;28;20400;-69
2022/04/02 03:25:30;;;;;;;9.68;6.50;;;;;;;0.07;100.00;97703.66;4980843;28;20118;-69
2022/04/02 03:27:55;;;;;;;9.43;5.72;;;;;;;0.14;100.00;97704.69;4983093;28;20537;-69
2022/04/02 03:30:23;;;;;;;12.38;6.40;;;;;;;0.11;100.00;97699.69;4991954;28;20037;-69
2022/04/02 03:32:49;;;;;;;9.30;6.38;;;;;;;0.12;100.00;97701.34;4994679;28;20450;-69
2022/04/02 03:35:15;;;;;;;11.10;7.38;;;;;;;0.03;100.00;97705.00;4991039;28;20507;-69
2022/04/02 03:37:46;;;;;;;11.63;6.43;;;;;;;-0.03;100.00;97687.03;4984239;28;20038;-69
2022/04/02 03:40:14;;;;;;;10.30;6.22;;;;;;;-0.05;100.00;97705.81;4996196;28;20491;-69
2022/04/02 03:42:41;;;;;;;9.70;5.05;;;;;;;0.00;100.00;97702.69;4981041;28;20184;-69
2022/04/02 03:45:08;;;;;;;12.00;6.07;;;;;;;-0.03;100.00;97698.53;4980483;28;20142;-69
2022/04/02 03:47:33;;;;;;;9.63;5.20;;;;;;;-0.24;100.00;97675.06;4986516;28;20026;-69
2022/04/02 03:49:59;;;;;;;9.70;5.90;;;;;;;-0.08;100.00;97706.16;4986090;28;20018;-69
2022/04/02 03:52:25;;;;;;;10.40;6.45;;;;;;;-0.23;100.00;97692.66;4991058;28;20512;-69
2022/04/02 03:54:51;;;;;;;13.32;6.45;;;;;;;-0.11;100.00;97718.91;4985287;28;20062;-69
2022/04/02 03:57:17;;;;;;;9.63;6.15;;;;;;;-0.10;100.00;97715.28;4993406;28;20030;-68
2022/04/02 03:59:43;;;;;;;9.88;5.72;;;;;;;-0.13;100.00;97713.78;4974273;28;20080;-74
2022/04/02 04:02:10;;;;;;;15.30;6.53;;;;;;;-0.06;100.00;97722.75;4986435;28;20034;-74
2022/04/02 04:04:36;;;;;;;10.38;6.03;;;;;;;-0.10;100.00;97726.75;4984791;28;20116;-73
2022/04/02 04:07:02;;;;;;;10.00;6.47;;;;;;;-0.25;100.00;97702.59;4985606;28;20114;-73
2022/04/02 04:09:28;;;;;;;8.85;5.78;;;;;;;-0.04;100.00;97739.38;4992346;28;20026;-73
2022/04/02 04:11:54;;;;;;;9.73;6.00;;;;;;;-0.16;100.00;97738.00;4982682;28;20061;-73
2022/04/02 04:14:20;;;;;;;10.38;6.10;;;;;;;-0.08;100.00;97731.88;4994743;28;20030;-73
2022/04/02 04:16:46;;;;;;;9.02;6.30;;;;;;;-0.15;100.00;97746.84;4991479;28;20022;-72
2022/04/02 04:19:12;;;;;;;12.23;6.28;;;;;;;-0.23;100.00;97734.34;4987979;28;20499;-72
2022/04/02 04:21:37;;;;;;;14.07;6.55;;;;;;;-0.38;100.00;97718.19;4991965;28;20026;-73
2022/04/02 04:24:04;;;;;;;12.90;6.75;;;;;;;-0.22;100.00;97739.50;4986543;28;20050;-73
2022/04/02 04:26:30;;;;;;;11.13;6.65;;;;;;;-0.13;100.00;97744.81;4983142;28;20026;-72
2022/04/02 04:28:55;;;;;;;11.65;6.90;;;;;;;-0.15;100.00;97742.34;4986799;28;20058;-73
2022/04/02 04:31:21;;;;;;;11.48;6.40;;;;;;;-0.30;100.00;97725.34;4990372;28;20019;-72
2022/04/02 04:33:47;;;;;;;10.43;6.63;;;;;;;-0.24;100.00;97744.16;4982136;28;20030;-73
2022/04/02 04:36:15;;;;;;;9.90;6.32;;;;;;;-0.29;100.00;97757.09;4987633;28;20105;-72
2022/04/02 04:38:41;;;;;;;12.13;6.68;;;;;;;-0.22;100.00;97746.63;4984417;28;20678;-72
2022/04/02 04:41:07;;;;;;;11.15;6.50;;;;;;;-0.15;100.00;97757.47;4986289;28;20030;-73
2022/04/02 04:43:34;;;;;;;14.85;7.10;;;;;;;-0.15;100.00;97762.78;4987692;28;20472;-73
2022/04/02 04:46:00;;;;;;;10.23;6.40;;;;;;;-0.19;100.00;97753.47;4985416;28;20066;-67
2022/04/02 04:48:25;;;;;;;9.90;6.38;;;;;;;-0.22;100.00;97765.25;4984006;28;20030;-66
2022/04/02 04:50:50;;;;;;;10.80;6.28;;;;;;;-0.28;100.00;97763.25;4985410;28;20029;-74
2022/04/02 04:53:16;;;;;;;11.75;6.90;;;;;;;-0.56;100.00;97733.38;4982261;28;20037;-73
2022/04/02 04:55:41;;;;;;;10.82;5.95;;;;;;;-0.37;100.00;97757.03;4986247;28;20476;-73
2022/04/02 04:58:07;;;;;;;10.63;5.90;;;;;;;-0.32;100.00;97770.69;4990583;28;20026;-74
2022/04/02 05:00:33;;;;;;;8.85;5.85;;;;;;;-0.26;100.00;97772.72;4985669;28;20030;-73
2022/04/02 05:02:59;;;;;;;9.95;6.35;;;;;;;-0.32;100.00;97775.16;4987670;28;20177;-73
2022/04/02 05:05:25;;;;;;;9.50;5.78;;;;;;;-0.36;100.00;97764.03;4987825;28;20101;-77
2022/04/02 05:07:51;;;;;;;10.68;5.78;;;;;;;-0.33;100.00;97777.00;4984518;28;20468;-74
2022/04/02 05:10:17;;;;;;;10.82;5.75;;;;;;;-0.43;100.00;97765.66;4986553;28;20029;-74
2022/04/02 05:12:42;;;;;;;9.05;5.18;;;;;;;-0.22;100.00;97789.16;4983145;28;20030;-72
2022/04/02 05:15:08;;;;;;;8.82;5.70;;;;;;;-0.18;100.00;97795.84;4988563;28;20477;-72
2022/04/02 05:17:37;;;;;;;7.32;4.60;;;;;;;-0.22;100.00;97784.69;5000284;28;20022;-72
2022/04/02 05:20:04;;;;;;;9.02;5.18;;;;;;;-0.12;100.00;97797.84;4988372;28;20583;-71
2022/04/02 05:22:29;;;;;;;8.68;5.10;;;;;;;-0.27;100.00;97775.53;4992434;28;20378;-73
2022/04/02 05:24:54;;;;;;;7.35;4.65;;;;;;;-0.22;100.00;97795.31;4988269;28;20105;-67
2022/04/02 05:27:20;;;;;;;10.13;5.32;;;;;;;-0.38;100.00;97779.31;4979819;28;20032;-67
2022/04/02 05:29:46;;;;;;;10.40;5.40;;;;;;;-0.17;100.00;97797.50;5031237;23;20060;-66
2022/04/02 05:32:12;;;;;;;6.63;4.97;;;;;;;-0.17;100.00;97799.31;5068802;28;20092;-66
2022/04/02 05:34:37;;;;;;;13.02;5.15;;;;;;;-0.01;100.00;97804.69;5070322;28;20519;-66
2022/04/02 05:37:03;;;;;;;7.13;4.47;;;;;;;-0.03;100.00;97806.69;5052347;28;20016;-67
2022/04/02 05:39:28;;;;;;;8.82;5.30;;;;;;;-0.39;100.00;97747.56;5053813;28;20029;-66
2022/04/02 05:41:53;;;;;;;7.00;4.45;;;;;;;-0.09;100.00;97812.66;5047006;28;20115;-66
2022/04/02 05:44:19;;;;;;;10.82;4.55;;;;;;;-0.03;100.00;97809.34;5042881;28;20116;-65
2022/04/02 05:46:44;;;;;;;6.88;4.68;;;;;;;-0.01;100.00;97820.66;5042029;28;20025;-67
2022/04/02 05:49:09;;;;;;;6.97;4.28;;;;;;;0.02;100.00;97816.84;5046871;28;20035;-66
2022/04/02 05:51:35;;;;;;;7.80;4.57;;;;;;;0.04;100.00;97814.84;5046037;28;20025;-74
2022/04/02 05:54:00;;;;;;;8.88;4.95;;;;;;;0.02;100.00;97819.50;5043417;28;20040;-70
2022/04/02 05:56:26;;;;;;;6.28;3.97;;;;;;;0.13;100.00;97835.16;5042018;28;20035;-68
2022/04/02 05:58:52;;;;;;;6.05;4.47;;;;;;;0.16;100.00;97829.53;5043374;28;20062;-75
2022/04/02 06:01:18;;;;;;;7.53;4.45;;;;;;;0.28;100.00;97832.72;5043944;28;20083;-68
2022/04/02 06:03:43;;;;;;;6.60;4.10;;;;;;;0.21;100.00;97824.56;5049952;28;20033;-68
2022/04/02 06:06:09;;;;;;;7.80;4.35;;;;;;;0.25;100.00;97833.03;5044366;28;20094;-68
2022/04/02 06:08:35;;;;;;;7.00;4.75;;;;;;;0.12;100.00;97834.31;5050242;28;20033;-68
2022/04/02 06:11:01;;;;;;;5.85;4.05;;;;;;;0.17;100.00;97834.66;5049618;28;20021;-69
2022/04/02 06:13:27;;;;;;;6.55;3.88;;;;;;;0.32;100.00;97844.72;5047820;28;20033;-69
2022/04/02 06:15:52;;;;;;;6.38;4.13;;;;;;;0.04;100.00;97799.72;5041324;28;20051;-69
2022/04/02 06:18:21;;;;;;;6.25;4.18;;;;;;;0.39;100.00;97851.03;5045322;28;20363;-69
2022/04/02 06:20:50;;;;;;;7.03;4.30;;;;;;;0.52;100.00;97856.72;5045963;28;20033;-70
2022/04/02 06:23:15;;;;;;;6.07;3.83;;;;;;;0.51;100.00;97860.38;5041151;28;20038;-70
2022/04/02 06:25:41;;;;;;;6.32;3.83;;;;;;;0.07;100.00;97815.34;5046604;28;20120;-70
2022/04/02 06:28:07;;;;;;;6.35;4.40;;;;;;;0.52;100.00;97864.69;5046477;28;20437;-70
2022/04/02 06:30:33;;;;;;;7.20;4.03;;;;;;;0.57;100.00;97869.53;5040148;28;20512;-70
2022/04/02 06:33:00;;;;;;;10.15;4.90;;;;;;;0.24;100.00;97868.59;5043802;28;20025;-70
2022/04/02 06:35:26;;;;;;;15.10;5.22;;;;;;;0.29;100.00;97845.88;5050137;28;20153;-70
2022/04/02 06:37:53;;;;;;;8.60;4.10;;;;;;;0.43;100.00;97871.00;5050795;28;20056;-70
2022/04/02 06:40:18;;;;;;;6.50;4.63;;;;;;;0.53;100.00;97885.00;5044018;28;20215;-70
2022/04/02 06:42:45;;;;;;;9.10;5.03;;;;;;;0.49;100.00;97872.19;5051769;28;20104;-73
2022/04/02 06:45:10;;;;;;;7.45;4.95;;;;;;;0.74;100.00;97883.72;5052415;28;20116;-74
2022/04/02 06:47:36;;;;;;;6.00;4.43;;;;;;;0.46;100.00;97849.38;5054770;28;20056;-71
2022/04/02 06:50:04;;;;;;;12.73;8.68;;;;;;;0.86;100.00;97901.88;5049391;28;20028;-72
2022/04/02 06:52:30;;;;;;;6.95;5.03;;;;;;;0.79;99.40;97889.38;5055188;28;20028;-69
2022/04/02 06:54:56;;;;;;;7.72;5.35;;;;;;;0.84;99.34;97903.88;5052240;28;20036;-69
2022/04/02 06:57:22;;;;;;;6.22;4.35;;;;;;;0.71;99.25;97892.88;5052584;28;20523;-68
2022/04/02 06:59:49;;;;;;;8.85;4.95;;;;;;;0.39;100.00;97856.34;5052184;28;20398;-70
2022/04/02 07:02:20;;;;;;;8.15;5.07;;;;;;;0.69;100.00;97902.00;5054224;28;20056;-72
2022/04/02 07:04:46;;;;;;;6.82;5.20;;;;;;;0.79;100.00;97902.69;5056512;28;20433;-71
2022/04/02 07:07:11;;;;;;;7.40;4.93;;;;;;;0.86;100.00;97896.56;5047841;28;20067;-72
2022/04/02 07:09:36;;;;;;;6.88;5.03;;;;;;;0.85;99.47;97883.41;5053574;28;20029;-73
2022/04/02 07:12:02;;;;;;;6.70;4.72;;;;;;;0.95;98.05;97920.53;5055014;28;20045;-73
2022/04/02 07:14:28;;;;;;;6.75;5.20;;;;;;;1.13;99.04;97929.22;5046086;28;20086;-71
2022/04/02 07:16:53;;;;;;;9.73;6.85;;;;;;;1.00;98.07;97928.88;5052188;28;20029;-69
2022/04/02 07:19:21;;;;;;;10.50;6.45;;;;;;;0.98;99.27;97934.34;5046608;28;20036;-70
2022/04/02 07:21:47;;;;;;;7.18;4.57;;;;;;;0.89;99.16;97911.34;5052138;28;20493;-70
2022/04/02 07:24:13;;;;;;;5.05;3.70;;;;;;;1.02;99.03;97941.03;5050576;28;20027;-66
2022/04/02 07:26:39;;;;;;;5.22;3.97;;;;;;;0.89;98.04;97916.66;5054720;28;20029;-74
2022/04/02 07:29:07;;;;;;;7.15;4.30;;;;;;;0.98;99.12;97947.66;5048684;28;20020;-74
2022/04/02 07:31:33;;;;;;;5.88;4.20;;;;;;;0.81;99.13;97945.94;5050571;28;20013;-73
2022/04/02 07:33:59;;;;;;;5.22;3.80;;;;;;;0.65;98.36;97933.44;5054390;28;20029;-70
2022/04/02 07:36:58;;;;;;;6.65;4.30;;;;;;;0.88;98.60;97958.44;5054771;28;20021;-68
2022/04/02 07:39:46;;;;;;;;;;;;;;;0.89;97.57;97969.94;5066574;28;20161;-67
2022/04/02 07:42:23;;;;;;;9.90;4.53;;;;;;;0.93;96.93;97971.28;5067678;28;19928;-68
2022/04/02 07:45:01;;;;;;;6.53;4.38;;;;;;;0.95;96.64;97981.78;5067419;28;20033;-66
2022/04/02 07:47:30;;;;;;;8.35;4.57;;;;;;;0.82;96.45;97964.44;5064257;28;20045;-66
2022/04/02 07:50:09;;;;;;;8.00;4.40;;;;;;;0.96;96.64;97992.25;5066958;28;20036;-67
2022/04/02 07:52:39;;;;;;;5.95;4.10;;;;;;;0.80;95.82;97965.59;5068186;28;20028;-65
2022/04/02 07:55:08;;;;;;;6.13;4.20;;;;;;;0.97;95.43;97988.63;5068446;28;20017;-66
2022/04/02 07:57:42;;;;;;;8.88;5.63;;;;;;;1.05;95.03;97990.47;5052971;28;20029;-67
2022/04/02 08:00:10;;;;;;;7.20;4.40;;;;;;;1.06;94.54;97994.78;5045730;28;20568;-66
2022/04/02 08:02:37;;;;;;;5.85;4.28;;;;;;;1.14;95.41;98004.63;5049027;28;20028;-67
2022/04/02 08:05:03;;;;;;;9.00;4.72;;;;;;;1.12;95.02;97993.31;5046949;28;20033;-66
2022/04/02 08:07:30;;;;;;;7.53;5.40;;;;;;;1.28;93.71;98009.31;5049498;28;20548;-67
2022/04/02 08:09:57;;;;;;;7.97;4.82;;;;;;;0.96;93.13;97978.94;5047773;28;20021;-66
2022/04/02 08:12:23;;;;;;;8.32;5.18;;;;;;;1.13;94.47;98005.59;5045763;28;20025;-66
2022/04/02 08:14:50;;;;;;;8.15;4.93;;;;;;;1.07;94.93;98009.75;5050198;28;20185;-66
2022/04/02 08:17:15;;;;;;;7.65;5.22;;;;;;;0.99;95.05;98007.91;5045875;28;20026;-66
2022/04/02 08:19:41;;;;;;;7.55;4.97;;;;;;;1.07;94.75;98023.94;5047213;28;20025;-67
2022/04/02 08:22:07;;;;;;;8.10;5.28;;;;;;;1.27;93.53;98020.97;5048296;28;20036;-66
2022/04/02 08:24:32;;;;;;;11.95;4.90;;;;;;;1.44;92.68;98012.03;5049442;28;21713;-67
2022/04/02 08:27:03;;;;;;;11.40;5.93;;;;;;;1.59;91.86;98032.69;5041340;28;20041;-67
2022/04/02 08:29:48;;;;;;;8.75;5.43;;;;;;;1.51;91.20;98037.00;5038713;28;20025;-67
2022/04/02 08:32:37;;;;;;;7.18;5.53;;;;;;;1.55;92.21;98034.84;5039773;28;20104;-66
2022/04/02 08:35:07;;;;;;;10.32;7.05;;;;;;;1.46;90.75;98035.81;5041186;28;20128;-65
2022/04/02 08:37:57;;;;;;;9.35;5.72;;;;;;;1.54;91.85;98042.00;5050714;28;20032;-67
2022/04/02 08:40:37;;;;;;;9.52;6.45;;;;;;;1.60;92.08;98048.53;5047333;28;20394;-66
2022/04/02 08:43:21;;;;;;;9.40;5.30;;;;;;;1.62;90.34;98053.66;5046881;28;20059;-67
2022/04/02 08:45:55;;;;;;;9.13;5.30;;;;;;;1.65;91.19;98056.84;5050892;28;20060;-67
2022/04/02 08:48:28;;;;;;;14.75;4.93;;;;;;;1.59;90.32;98064.66;5050296;28;20057;-68
2022/04/02 08:51:16;;;;;;;9.50;5.35;;;;;;;1.53;91.31;98047.50;5048006;28;20490;-67
2022/04/02 08:54:01;;;;;;;10.68;5.18;;;;;;;1.73;91.27;98066.69;5029002;28;20391;-69
2022/04/02 08:56:28;;;;;;;10.50;5.10;;;;;;;1.84;89.79;98078.88;5041005;28;20039;-66
2022/04/02 08:59:01;;;;;;;8.95;5.32;;;;;;;2.02;89.30;98068.88;5047322;28;20044;-67
2022/04/02 09:01:52;;;;;;;10.23;6.07;;;;;;;1.98;89.77;98083.53;5046988;28;20039;-67
2022/04/02 09:04:37;;;;;;;7.47;4.80;;;;;;;1.64;89.61;98091.66;5031985;28;20064;-67
2022/04/02 09:07:14;;;;;;;7.72;4.60;;;;;;;1.52;89.42;98094.66;5043174;28;20081;-68
2022/04/02 09:10:13;;;;;;;8.23;4.93;;;;;;;1.34;90.73;98096.63;5046798;28;23422;-67
2022/04/02 09:12:56;;;;;;;;;;;;;;;1.24;91.21;98103.91;5044637;28;20056;-66
2022/04/02 09:16:04;;;;;;;6.82;4.82;;;;;;;1.41;90.76;98113.59;5041538;28;19959;-67
2022/04/02 09:18:39;;;;;;;6.38;4.45;;;;;;;1.72;90.07;98097.00;4956149;28;20038;-67
2022/04/02 09:21:42;;;;;;;8.55;5.22;;;;;;;1.66;89.18;98111.84;4948995;28;20034;-67
2022/04/02 09:24:33;;;;;;;7.15;5.15;;;;;;;1.63;90.31;98106.00;5032251;28;20406;-68
2022/04/02 09:27:32;;;;;;;8.85;5.18;;;;;;;1.26;90.04;98120.56;5046144;28;20025;-68
2022/04/02 09:30:23;;;;;;;7.88;5.00;;;;;;;1.46;90.41;98115.78;5042972;28;20043;-70
2022/04/02 09:33:28;;;;;;;7.93;5.15;;;;;;;1.49;90.38;98126.13;5013262;28;20029;-71
2022/04/02 09:36:21;;;;;;;7.32;4.88;;;;;;;1.64;90.53;98113.00;5050669;28;20449;-71
2022/04/02 09:39:05;;;;;;;6.95;4.78;;;;;;;2.01;88.81;98130.38;5065480;28;20017;-72
2022/04/02 09:41:48;;;;;;;10.27;5.53;;;;;;;1.94;88.19;98133.72;5047624;28;20485;-71
2022/04/02 09:44:40;;;;;;;12.10;8.75;;;;;;;2.10;87.52;98118.75;5043382;28;20137;-71
2022/04/02 09:47:11;;;;;;;7.63;4.97;;;;;;;2.03;87.28;98139.06;5045572;28;20036;-70
2022/04/02 09:49:58;;;;;;;9.07;5.25;;;;;;;2.35;87.08;98136.38;5050288;28;20115;-66
2022/04/02 09:52:26;;;;;;;11.20;5.18;;;;;;;2.42;84.92;98142.75;5051627;28;20471;-66
2022/04/02 09:55:06;;;;;;;8.18;5.43;;;;;;;2.61;85.12;98132.69;5044588;28;20044;-67
2022/04/02 09:57:45;;;;;;;11.32;5.95;;;;;;;2.62;84.19;98131.72;5050632;28;20033;-70
2022/04/02 10:00:22;;;;;;;8.20;5.00;;;;;;;2.31;85.35;98115.56;5047955;28;20117;-69
2022/04/02 10:03:06;;;;;;;8.02;5.35;;;;;;;2.46;85.45;98135.22;5042974;28;20335;-70
2022/04/02 10:06:09;;;;;;;7.88;5.18;;;;;;;2.34;86.68;98153.41;5045923;28;20029;-69
2022/04/02 10:08:34;;;;;;;8.48;7.05;;;;;;;2.53;85.27;98149.56;5046855;28;20043;-69
2022/04/02 10:11:04;;;;;;;7.97;6.05;;;;;;;2.44;85.04;98158.59;5046573;28;20393;-69
2022/04/02 10:13:33;;;;;;;9.07;6.70;;;;;;;2.73;84.77;98144.72;5042936;28;20037;-68
2022/04/02 10:15:59;;;;;;;9.60;5.97;;;;;;;2.95;85.00;98145.81;5050637;28;20036;-70
2022/04/02 10:18:25;;;;;;;7.05;4.75;;;;;;;2.75;85.35;98150.72;5048121;28;20033;-68
2022/04/02 10:20:52;;;;;;;9.23;5.05;;;;;;;3.16;84.80;98158.63;5046681;28;20034;-69
2022/04/02 10:23:29;;;;;;;13.07;5.85;;;;;;;3.38;83.99;98162.41;5047168;28;20090;-69
2022/04/02 10:26:09;;;;;;;11.90;4.63;;;;;;;3.58;81.33;98161.97;5042812;28;20029;-70
2022/04/02 10:28:55;;;;;;;7.82;5.05;;;;;;;3.70;80.89;98160.56;5050960;28;20107;-69
2022/04/02 10:31:36;;;;;;;9.75;5.03;;;;;;;3.28;82.39;98151.91;5043474;28;20032;-70
2022/04/02 10:34:09;;;;;;;9.38;6.40;;;;;;;3.06;82.67;98157.97;5045637;28;20438;-68
2022/04/02 10:36:50;;;;;;;6.13;4.60;;;;;;;2.82;81.51;98166.88;5045017;28;20031;-68
2022/04/02 10:39:18;;;;;;;10.13;5.22;;;;;;;2.58;82.83;98179.28;5041951;28;20032;-68
2022/04/02 10:41:45;;;;;;;10.33;6.20;;;;;;;2.48;83.85;98169.78;5046964;28;20382;-68
2022/04/02 10:44:21;;;;;;;8.30;5.28;;;;;;;2.53;84.80;98186.13;5045096;28;20287;-68
2022/04/02 10:46:51;;;;;;;8.93;5.40;;;;;;;2.40;84.53;98168.75;5042967;28;20123;-68
2022/04/02 10:49:22;;;;;;;10.13;6.18;;;;;;;2.16;84.91;98188.28;5041321;28;20071;-68
2022/04/02 10:51:53;;;;;;;7.38;5.25;;;;;;;2.14;85.30;98192.09;5045072;28;20249;-68
2022/04/02 10:54:27;;;;;;;8.27;5.72;;;;;;;2.04;85.98;98181.56;5038883;28;20394;-68
2022/04/02 10:56:55;;;;;;;9.00;6.00;;;;;;;2.37;85.50;98193.13;5039637;28;20039;-68
2022/04/02 10:59:21;;;;;;;10.13;5.85;;;;;;;2.73;85.53;98195.47;5042437;28;20051;-68
2022/04/02 11:01:49;;;;;;;7.47;5.20;;;;;;;2.96;84.14;98190.25;5045930;28;20471;-68
2022/04/02 11:04:53;;;;;;;7.17;5.20;;;;;;;3.17;84.26;98189.72;5047808;28;20028;-68
2022/04/02 11:07:37;;;;;;;8.57;5.57;;;;;;;2.94;82.58;98186.09;5049533;28;20021;-68
2022/04/02 11:10:04;;;;;;;9.75;5.30;;;;;;;2.71;82.51;98201.97;5043769;28;20021;-68
2022/04/02 11:12:41;;;;;;;8.73;6.18;;;;;;;1.97;84.49;98202.75;5048907;28;20031;-67
2022/04/02 11:15:08;;;;;;;9.82;6.68;;;;;;;1.97;88.23;98178.75;5049268;28;20025;-68
2022/04/02 11:17:41;;;;;;;8.95;6.20;;;;;;;2.44;86.34;98206.66;5049414;28;20036;-70
2022/04/02 11:20:22;;;;;;;9.38;6.63;;;;;;;2.14;83.86;98216.13;5051964;28;20738;-69
2022/04/02 11:23:02;;;;;;;11.15;7.00;;;;;;;2.62;86.04;98209.16;5050994;28;20033;-69
2022/04/02 11:25:35;;;;;;;9.20;6.68;;;;;;;2.70;83.31;98211.81;5043046;28;20111;-69
2022/04/02 11:28:12;;;;;;;11.20;7.30;;;;;;;2.52;83.91;98224.50;5050690;28;20486;-69
2022/04/02 11:31:04;;;;;;;10.90;6.20;;;;;;;2.37;84.46;98222.50;5051889;28;20082;-69
2022/04/02 11:33:32;;;;;;;11.68;6.20;;;;;;;2.25;85.64;98234.47;5032859;28;20580;-70
2022/04/02 11:36:03;;;;;;;11.17;7.87;;;;;;;1.97;87.36;98216.09;5050844;28;20033;-70
2022/04/02 11:38:34;;;;;;;12.13;6.45;;;;;;;2.35;86.06;98235.16;5047110;28;20033;-69
2022/04/02 11:41:13;;;;;;;8.75;6.07;;;;;;;2.21;85.37;98222.47;5050443;28;20028;-69
2022/04/02 11:43:41;;;;;;;10.63;7.25;;;;;;;2.57;85.57;98231.03;5050132;28;20044;-70
2022/04/02 11:46:08;;;;;;;11.70;6.97;;;;;;;2.25;84.72;98222.97;5047950;28;20115;-70